Time;durP1;ratioP1;P1;durP2;ratioP2;P2;SDS_P1;SDS_P2;PMS_P1;PMS_P2;Temp;Humidity;BMP_temperature;BMP_pressure;BME280_temperature;BME280_humidity;BME280_pressure;Samples;Min_cycle;Max_cycle;Signal;HPM_P1;HPM_P2
2022/08/27 00:00:08;;;;;;;;;5.00;5.00;;;;;20.58;65.39;99827.31;5075971;28;8862;-64
2022/08/27 00:02:36;;;;;;;;;5.00;5.00;;;;;20.51;65.78;99822.84;5075973;28;8882;-62
2022/08/27 00:05:04;;;;;;;;;4.60;4.60;;;;;20.48;65.64;99826.75;5075413;28;8843;-63
2022/08/27 00:07:31;;;;;;;;;2.00;1.20;;;;;20.49;66.04;99828.41;5076103;28;8848;-62
2022/08/27 00:09:59;;;;;;;;;5.00;5.00;;;;;20.46;65.71;99828.81;5076061;28;8946;-63
2022/08/27 00:12:27;;;;;;;;;4.00;4.00;;;;;20.44;65.88;99827.31;5075439;28;8862;-63
2022/08/27 00:14:55;;;;;;;;;1.00;1.00;;;;;20.41;66.07;99823.09;5076116;28;8978;-62
2022/08/27 00:17:22;;;;;;;;;5.80;5.00;;;;;20.41;66.14;99820.41;5076084;28;8966;-63
2022/08/27 00:19:53;;;;;;;;;5.00;5.00;;;;;20.38;66.31;99822.66;5075533;28;8952;-63
2022/08/27 00:22:20;;;;;;;;;4.00;4.00;;;;;20.38;66.10;99814.53;5075729;28;8874;-63
2022/08/27 00:24:48;;;;;;;;;6.60;5.00;;;;;20.34;66.71;99830.28;5075673;28;9595;-62
2022/08/27 00:27:15;;;;;;;;;4.00;4.00;;;;;20.34;66.76;99826.75;5087223;28;8810;-62
2022/08/27 00:29:43;;;;;;;;;8.40;5.80;;;;;20.34;66.19;99819.47;5096096;28;8956;-64
2022/08/27 00:32:11;;;;;;;;;5.40;4.20;;;;;20.35;66.32;99823.03;5095780;28;8845;-64
2022/08/27 00:34:39;;;;;;;;;7.40;6.60;;;;;20.32;66.61;99818.00;5095613;28;8854;-63
2022/08/27 00:37:07;;;;;;;;;7.00;5.00;;;;;20.33;66.29;99819.69;5095730;28;8826;-63
2022/08/27 00:39:35;;;;;;;;;5.80;4.60;;;;;20.35;66.73;99821.19;5096177;28;8818;-64
2022/08/27 00:42:03;;;;;;;;;5.00;4.40;;;;;20.37;66.26;99824.53;5095773;28;8849;-63
2022/08/27 00:44:31;;;;;;;;;2.80;2.20;;;;;20.35;66.49;99814.91;5095562;28;8852;-63
2022/08/27 00:47:00;;;;;;;;;5.00;4.00;;;;;20.32;66.24;99826.13;5095499;28;8853;-63
2022/08/27 00:49:28;;;;;;;;;8.80;8.40;;;;;20.28;66.05;99825.66;5102144;28;8830;-63
2022/08/27 00:51:56;;;;;;;;;16.00;13.80;;;;;20.22;66.90;99820.97;5102073;28;8914;-63
2022/08/27 00:54:25;;;;;;;;;11.00;8.00;;;;;20.17;66.65;99826.09;5102618;28;9515;-63
2022/08/27 00:56:52;;;;;;;;;11.00;10.00;;;;;20.12;67.09;99825.84;5102716;28;8968;-63
2022/08/27 00:59:21;;;;;;;;;4.40;4.20;;;;;20.08;66.76;99829.06;5102372;28;8830;-64
2022/08/27 01:04:33;;;;;;;;;10.80;5.20;;;;;19.95;67.14;99829.69;5101826;28;8850;-64
2022/08/27 01:07:01;;;;;;;;;11.00;10.60;;;;;19.89;67.34;99829.59;5101549;28;8862;-62
2022/08/27 01:09:29;;;;;;;;;8.00;8.00;;;;;19.85;67.30;99821.00;5102114;28;8906;-62
2022/08/27 01:11:57;;;;;;;;;11.80;8.40;;;;;19.81;67.24;99822.38;5101692;28;8860;-63
2022/08/27 01:14:24;;;;;;;;;7.00;7.00;;;;;19.76;67.69;99819.41;5102827;28;8818;-65
2022/08/27 01:16:53;;;;;;;;;7.40;7.00;;;;;19.72;67.78;99823.47;5101800;28;8825;-63
2022/08/27 01:19:22;;;;;;;;;8.80;8.80;;;;;19.69;67.97;99828.41;5102396;28;8848;-62
2022/08/27 01:21:50;;;;;;;;;9.40;7.60;;;;;19.67;67.77;99825.06;5101158;28;8825;-62
2022/08/27 01:24:17;;;;;;;;;8.40;8.40;;;;;19.63;67.78;99824.59;5100345;28;8826;-62
2022/08/27 01:26:45;;;;;;;;;13.60;11.00;;;;;19.63;68.29;99827.28;5100883;28;8976;-62
2022/08/27 01:29:13;;;;;;;;;10.40;10.40;;;;;19.58;67.90;99824.28;5101965;28;8838;-62
2022/08/27 01:31:41;;;;;;;;;12.20;11.00;;;;;19.54;68.20;99827.53;5101914;28;8973;-61
2022/08/27 01:34:09;;;;;;;;;8.80;8.00;;;;;19.50;68.17;99826.22;5102122;28;8834;-62
2022/08/27 01:36:36;;;;;;;;;13.60;12.20;;;;;19.47;68.19;99823.88;5100702;28;8807;-63
2022/08/27 01:39:05;;;;;;;;;13.80;10.00;;;;;19.40;68.54;99818.38;5101449;28;8810;-65
2022/08/27 01:41:32;;;;;;;;;13.20;10.00;;;;;19.39;68.17;99826.63;5101371;28;9543;-63
2022/08/27 01:44:01;;;;;;;;;12.60;10.00;;;;;19.39;68.38;99826.63;5100596;28;8814;-63
2022/08/27 01:46:28;;;;;;;;;13.20;12.20;;;;;19.36;68.35;99818.91;5101005;28;8842;-63
2022/08/27 01:48:56;;;;;;;;;15.00;13.60;;;;;19.32;68.68;99831.94;5101217;28;8842;-63
2022/08/27 01:51:24;;;;;;;;;13.00;10.00;;;;;19.28;68.22;99830.59;5100583;28;9549;-63
2022/08/27 01:53:52;;;;;;;;;13.00;11.00;;;;;19.25;68.51;99832.81;5100794;28;9618;-63
2022/08/27 01:56:20;;;;;;;;;13.40;11.40;;;;;19.24;68.03;99823.91;5100724;28;8849;-63
2022/08/27 01:58:48;;;;;;;;;13.20;11.40;;;;;19.24;68.46;99828.44;5100439;28;8822;-64
2022/08/27 02:01:16;;;;;;;;;7.00;5.60;;;;;19.23;68.65;99834.88;5097003;28;8834;-63
2022/08/27 02:03:46;;;;;;;;;12.80;10.40;;;;;19.20;68.79;99835.25;5097549;28;8849;-63
2022/08/27 02:06:13;;;;;;;;;4.00;2.80;;;;;19.15;69.02;99835.75;5098338;28;8952;-62
2022/08/27 02:08:42;;;;;;;;;10.00;10.00;;;;;19.13;68.31;99831.53;5097988;28;9483;-63
2022/08/27 02:11:10;;;;;;;;;9.20;8.40;;;;;19.10;68.68;99826.47;5099071;28;8840;-63
2022/08/27 02:13:38;;;;;;;;;13.20;10.60;;;;;19.06;69.23;99820.59;5098045;28;8864;-62
2022/08/27 02:16:06;;;;;;;;;8.20;8.20;;;;;19.04;68.90;99830.75;5098409;28;8980;-63
2022/08/27 02:18:35;;;;;;;;;9.00;8.00;;;;;19.03;68.97;99831.75;5097825;28;8830;-63
2022/08/27 02:21:03;;;;;;;;;7.00;7.00;;;;;19.02;69.45;99822.00;5098559;28;8911;-63
2022/08/27 02:23:31;;;;;;;;;9.60;8.00;;;;;19.03;69.27;99829.06;5098582;28;8918;-63
2022/08/27 02:25:59;;;;;;;;;9.20;8.80;;;;;19.03;68.95;99829.06;5097393;28;8827;-64
2022/08/27 02:28:27;;;;;;;;;10.40;9.60;;;;;19.00;69.79;99826.72;5097400;28;8902;-62
2022/08/27 02:30:55;;;;;;;;;8.00;7.20;;;;;18.99;69.05;99825.06;5097195;28;8834;-61
2022/08/27 02:33:23;;;;;;;;;10.00;7.80;;;;;18.99;69.28;99821.50;5096770;28;8873;-62
2022/08/27 02:35:50;;;;;;;;;9.20;7.40;;;;;18.98;69.31;99823.34;5096870;28;8834;-62
2022/08/27 02:38:19;;;;;;;;;11.20;11.20;;;;;18.99;69.16;99819.66;5097574;28;8844;-62
2022/08/27 02:40:47;;;;;;;;;8.00;8.00;;;;;18.98;69.35;99823.34;5097421;28;8965;-61
2022/08/27 02:43:15;;;;;;;;;11.00;10.00;;;;;18.98;69.45;99823.34;5098213;28;8903;-63
2022/08/27 02:45:51;;;;;;;;;7.20;6.60;;;;;19.02;69.24;99824.69;5097249;28;9492;-61
2022/08/27 02:48:20;;;;;;;;;9.20;9.00;;;;;19.04;69.69;99824.53;5077528;28;8924;-61
2022/08/27 02:50:47;;;;;;;;;7.00;7.00;;;;;19.03;69.56;99826.38;5077342;28;8838;-62
2022/08/27 02:53:15;;;;;;;;;9.60;7.60;;;;;19.00;69.83;99824.03;5077395;28;8828;-61
2022/08/27 02:55:43;;;;;;;;;6.60;6.20;;;;;18.99;70.07;99825.06;5077709;28;8821;-61
2022/08/27 02:58:14;;;;;;;;;4.00;2.40;;;;;18.95;69.36;99818.31;5076125;28;8897;-62
2022/08/27 03:00:41;;;;;;;;;12.40;11.20;;;;;18.93;69.96;99817.66;5077184;28;8898;-61
2022/08/27 03:03:09;;;;;;;;;11.20;7.20;;;;;18.93;69.86;99817.66;5077284;28;8848;-61
2022/08/27 03:05:37;;;;;;;;;7.80;6.40;;;;;18.93;70.07;99820.38;5077020;28;8844;-62
2022/08/27 03:08:05;;;;;;;;;11.40;9.20;;;;;18.93;69.92;99814.97;5076917;28;8862;-61
2022/08/27 03:10:32;;;;;;;;;8.80;8.40;;;;;18.90;70.17;99811.78;5076879;28;8878;-62
2022/08/27 03:13:00;;;;;;;;;5.60;5.60;;;;;18.87;69.57;99818.38;5089175;28;8948;-61
2022/08/27 03:15:28;;;;;;;;;12.60;9.60;;;;;18.84;69.66;99810.63;5097551;28;8898;-61
2022/08/27 03:20:41;;;;;;;;;15.60;12.20;;;;;18.85;69.66;99812.31;5097328;28;8964;-62
2022/08/27 03:23:08;;;;;;;;;13.00;11.80;;;;;18.86;69.88;99814.00;5097231;28;8968;-61
2022/08/27 03:25:36;;;;;;;;;13.60;13.00;;;;;18.82;69.95;99815.34;5097538;28;8838;-61
2022/08/27 03:28:04;;;;;;;;;15.60;11.60;;;;;18.81;70.54;99824.47;5096881;28;8834;-62
2022/08/27 03:30:50;;;;;;;;;13.60;12.80;;;;;18.79;69.56;99822.97;5096580;28;8826;-61
2022/08/27 03:33:18;;;;;;;;;10.00;8.20;;;;;18.79;69.95;99823.81;5096733;28;8862;-61
2022/08/27 03:35:46;;;;;;;;;10.20;9.40;;;;;18.80;70.50;99830.88;5096473;28;8837;-61
2022/08/27 03:38:18;;;;;;;;;10.80;6.40;;;;;18.78;70.32;99822.13;5097344;28;8814;-61
2022/08/27 03:40:46;;;;;;;;;16.20;12.40;;;;;18.79;69.81;99822.97;5096571;28;8829;-61
2022/08/27 03:43:14;;;;;;;;;10.60;10.20;;;;;18.78;70.32;99823.97;5095887;28;8810;-60
2022/08/27 03:45:42;;;;;;;;;12.40;12.40;;;;;18.78;69.82;99822.13;5097042;28;8841;-62
2022/08/27 03:48:28;;;;;;;;;10.00;7.20;;;;;18.81;70.17;99821.78;5096219;28;8854;-62
2022/08/27 03:50:56;;;;;;;;;8.00;5.40;;;;;18.83;70.03;99829.69;5096373;28;9638;-60
2022/08/27 03:53:24;;;;;;;;;12.00;10.00;;;;;18.82;70.10;99826.16;5095068;28;8967;-61
2022/08/27 03:55:52;;;;;;;;;8.20;7.40;;;;;18.78;69.63;99827.53;5096641;28;8903;-61
2022/08/27 03:58:20;;;;;;;;;8.80;7.60;;;;;18.76;69.90;99826.84;5096702;28;8832;-61
2022/08/27 04:00:48;;;;;;;;;11.20;9.00;;;;;18.75;70.47;99833.25;5096332;28;8849;-61
2022/08/27 04:03:15;;;;;;;;;10.60;10.00;;;;;18.76;70.58;99826.84;5096221;28;8860;-60
2022/08/27 04:05:43;;;;;;;;;11.40;10.20;;;;;18.76;70.69;99824.16;5096467;28;8818;-62
2022/08/27 04:08:12;;;;;;;;;12.80;8.80;;;;;18.77;70.67;99827.69;5096380;28;8853;-60
2022/08/27 04:10:40;;;;;;;;;7.00;7.00;;;;;18.76;70.67;99828.72;5096182;28;8826;-61
2022/08/27 04:13:07;;;;;;;;;9.40;9.00;;;;;18.77;70.48;99825.84;5095999;28;9779;-61
2022/08/27 04:15:35;;;;;;;;;9.80;9.00;;;;;18.78;70.64;99832.94;5096605;28;8856;-61
2022/08/27 04:18:07;;;;;;;;;11.00;10.20;;;;;18.81;70.89;99834.44;5096291;28;8859;-60
2022/08/27 04:20:35;;;;;;;;;10.00;9.40;;;;;18.80;70.51;99838.97;5095869;28;8903;-61
2022/08/27 04:23:03;;;;;;;;;12.00;11.20;;;;;18.77;70.19;99839.34;5095184;28;8942;-61
2022/08/27 04:25:30;;;;;;;;;9.60;8.80;;;;;18.76;70.45;99847.59;5095516;28;8825;-61
2022/08/27 04:27:58;;;;;;;;;9.80;8.80;;;;;18.72;70.30;99839.03;5095369;28;8833;-61
2022/08/27 04:30:26;;;;;;;;;9.00;9.00;;;;;18.70;71.08;99841.06;5095358;28;8814;-60
2022/08/27 04:32:54;;;;;;;;;9.60;8.20;;;;;18.69;70.74;99842.09;5095514;28;8862;-61
2022/08/27 04:35:22;;;;;;;;;10.60;10.40;;;;;18.67;71.04;99841.41;5094673;28;8842;-60
2022/08/27 04:37:49;;;;;;;;;6.20;6.00;;;;;18.67;71.13;99848.66;5095116;28;8830;-61
2022/08/27 04:40:18;;;;;;;;;6.00;6.00;;;;;18.67;71.32;99846.78;5094478;28;8822;-60
2022/08/27 04:42:45;;;;;;;;;6.00;5.00;;;;;18.65;71.09;99840.75;5094241;28;8919;-60
2022/08/27 04:45:13;;;;;;;;;8.60;7.00;;;;;18.67;71.30;99845.97;5094232;28;8861;-61
2022/08/27 04:47:41;;;;;;;;;8.00;6.00;;;;;18.67;71.12;99844.09;5094425;28;8956;-62
2022/08/27 04:50:09;;;;;;;;;11.00;9.60;;;;;18.68;71.31;99851.16;5095725;28;9515;-59
2022/08/27 04:52:36;;;;;;;;;6.40;6.00;;;;;18.66;70.88;99844.28;5095040;28;8843;-59
2022/08/27 04:55:07;;;;;;;;;8.00;8.00;;;;;18.64;71.02;99838.22;5095491;28;8838;-60
2022/08/27 04:57:36;;;;;;;;;7.00;6.80;;;;;18.61;70.98;99852.88;5095523;28;8826;-61
2022/08/27 05:00:05;;;;;;;;;8.40;7.00;;;;;18.58;71.11;99855.94;5095713;28;8910;-62
2022/08/27 05:02:33;;;;;;;;;7.80;7.60;;;;;18.56;70.87;99858.00;5095616;28;8866;-61
2022/08/27 05:05:01;;;;;;;;;7.00;6.40;;;;;18.56;71.46;99854.44;5095373;28;8992;-61
2022/08/27 05:07:28;;;;;;;;;6.00;5.20;;;;;18.57;71.13;99856.13;5095525;28;8830;-60
2022/08/27 05:09:57;;;;;;;;;7.80;7.00;;;;;18.54;71.24;99851.94;5095563;28;8841;-60
2022/08/27 05:12:24;;;;;;;;;6.00;5.00;;;;;18.54;71.28;99853.78;5094177;28;8965;-60
2022/08/27 05:14:52;;;;;;;;;5.80;5.80;;;;;18.53;71.05;99855.63;5094924;28;8860;-60
2022/08/27 05:17:20;;;;;;;;;6.40;5.00;;;;;18.51;71.64;99849.56;5095616;28;8956;-62
2022/08/27 05:19:48;;;;;;;;;4.20;4.00;;;;;18.49;71.56;99848.91;5095246;28;8826;-60
2022/08/27 05:22:16;;;;;;;;;4.00;3.00;;;;;18.50;70.87;99855.97;5095586;28;8914;-62
2022/08/27 05:24:44;;;;;;;;;8.40;7.00;;;;;18.50;71.50;99858.69;5095906;28;8868;-62
2022/08/27 05:27:16;;;;;;;;;9.60;7.00;;;;;18.50;71.53;99855.97;5094608;28;8968;-61
2022/08/27 05:29:45;;;;;;;;;7.00;6.60;;;;;18.50;71.52;99850.59;5095026;28;8848;-61
2022/08/27 05:32:13;;;;;;;;;6.00;5.20;;;;;18.53;71.13;99854.78;5095535;28;9023;-62
2022/08/27 05:34:41;;;;;;;;;6.80;6.20;;;;;18.53;71.58;99858.31;5095858;28;8961;-60
2022/08/27 05:37:08;;;;;;;;;5.20;5.20;;;;;18.56;71.31;99860.69;5099171;28;8834;-62
2022/08/27 05:39:36;;;;;;;;;4.00;4.00;;;;;18.54;71.44;99861.88;5098506;28;8867;-60
2022/08/27 05:42:04;;;;;;;;;7.00;6.40;;;;;18.53;71.04;99865.59;5098819;28;8965;-63
2022/08/27 05:44:32;;;;;;;;;9.00;4.60;;;;;18.51;71.27;99868.44;5099105;28;8838;-60
2022/08/27 05:47:08;;;;;;;;;6.00;6.00;;;;;18.51;71.58;99867.63;5099041;28;8825;-61
2022/08/27 05:49:37;;;;;;;;;6.60;5.00;;;;;18.52;71.04;99864.72;5098575;28;8899;-62
2022/08/27 05:52:05;;;;;;;;;5.00;4.20;;;;;18.51;70.94;99871.16;5098624;28;8914;-60
2022/08/27 05:54:32;;;;;;;;;6.40;6.40;;;;;18.54;70.94;99865.41;5098807;28;8848;-62
2022/08/27 05:57:00;;;;;;;;;6.00;6.00;;;;;18.56;71.02;99871.47;5098622;28;8832;-60
2022/08/27 06:02:13;;;;;;;;;7.00;6.80;;;;;18.58;70.84;99866.75;5098122;28;9001;-60
2022/08/27 06:04:41;;;;;;;;;7.00;6.40;;;;;18.59;71.05;99854.94;5098267;28;8837;-60
2022/08/27 06:07:09;;;;;;;;;6.00;6.00;;;;;18.60;71.18;99867.41;5098354;28;8826;-60
2022/08/27 06:09:37;;;;;;;;;3.00;2.40;;;;;18.59;71.21;99865.72;5098032;28;8833;-62
2022/08/27 06:12:05;;;;;;;;;5.60;4.00;;;;;18.57;71.37;99875.84;5098552;28;8838;-60
2022/08/27 06:14:32;;;;;;;;;4.60;4.60;;;;;18.57;71.54;99873.16;5097934;28;8841;-61
2022/08/27 06:17:00;;;;;;;;;6.20;6.00;;;;;18.60;71.03;99874.66;5098082;28;8830;-62
2022/08/27 06:19:28;;;;;;;;;5.80;5.80;;;;;18.61;71.20;99879.88;5098017;28;8825;-61
2022/08/27 06:21:57;;;;;;;;;4.80;4.80;;;;;18.67;71.12;99871.06;5098125;28;8838;-61
2022/08/27 06:24:37;;;;;;;;;6.20;6.00;;;;;18.68;71.22;99880.03;5098397;28;8922;-61
2022/08/27 06:27:06;;;;;;;;;8.40;7.00;;;;;18.64;71.16;99884.06;5097665;28;8844;-60
2022/08/27 06:29:33;;;;;;;;;5.60;5.00;;;;;18.61;71.13;99887.13;5098068;28;8962;-61
2022/08/27 06:32:01;;;;;;;;;7.20;7.20;;;;;18.60;71.55;99891.66;5096280;28;8846;-62
2022/08/27 06:34:29;;;;;;;;;6.00;5.00;;;;;18.59;71.03;99890.00;5097503;28;8858;-61
2022/08/27 06:36:58;;;;;;;;;5.80;5.80;;;;;18.60;71.10;99893.53;5097575;28;8821;-61
2022/08/27 06:39:26;;;;;;;;;3.20;2.60;;;;;18.60;71.54;99893.53;5097676;28;8841;-61
2022/08/27 06:41:57;;;;;;;;;4.60;4.60;;;;;18.58;71.08;99882.91;5097895;28;8841;-61
2022/08/27 06:44:24;;;;;;;;;7.00;6.00;;;;;18.59;71.31;99881.91;5097490;28;8844;-61
2022/08/27 06:46:52;;;;;;;;;4.60;3.60;;;;;18.61;71.39;99882.56;5097576;28;8834;-61
2022/08/27 06:49:22;;;;;;;;;6.40;5.00;;;;;18.63;71.33;99883.25;5097269;28;8844;-61
2022/08/27 06:51:49;;;;;;;;;5.80;4.60;;;;;18.65;70.85;99881.22;5096803;28;8838;-60
2022/08/27 06:54:18;;;;;;;;;7.00;7.00;;;;;18.64;70.68;99876.84;5096959;28;8952;-61
2022/08/27 06:56:48;;;;;;;;;4.60;4.60;;;;;18.66;71.43;99882.88;5097111;28;9592;-61
2022/08/27 06:59:16;;;;;;;;;6.00;6.00;;;;;18.68;71.59;99890.81;5096887;28;8953;-61
2022/08/27 07:01:44;;;;;;;;;7.80;7.80;;;;;18.65;70.85;99880.34;5096699;28;8838;-61
2022/08/27 07:04:11;;;;;;;;;5.40;5.40;;;;;18.66;70.74;99876.66;5097097;28;8822;-61
2022/08/27 07:06:39;;;;;;;;;8.00;6.60;;;;;18.67;70.76;99876.47;5097409;28;8829;-63
2022/08/27 07:09:08;;;;;;;;;8.80;8.80;;;;;18.70;70.67;99880.69;5096058;28;8876;-62
2022/08/27 07:11:36;;;;;;;;;6.60;6.40;;;;;18.77;70.53;99884.38;5096565;28;8822;-61
2022/08/27 07:14:04;;;;;;;;;3.00;3.00;;;;;18.82;70.75;99872.03;5096729;28;8825;-61
2022/08/27 07:16:32;;;;;;;;;2.40;1.60;;;;;18.87;70.17;99876.88;5096995;28;8953;-62
2022/08/27 07:19:01;;;;;;;;;6.20;5.40;;;;;18.91;70.51;99878.22;5096018;28;8829;-61
2022/08/27 07:21:30;;;;;;;;;6.00;5.20;;;;;18.95;70.03;99880.41;5096530;28;8846;-61
2022/08/27 07:24:03;;;;;;;;;8.20;8.20;;;;;18.98;70.03;99876.50;5096932;28;9598;-61
2022/08/27 07:26:31;;;;;;;;;6.40;6.00;;;;;18.99;69.88;99876.34;5096739;28;8822;-61
2022/08/27 07:28:59;;;;;;;;;6.80;6.80;;;;;18.99;69.72;99884.44;5111580;28;8869;-61
2022/08/27 07:31:27;;;;;;;;;4.20;4.20;;;;;18.99;69.94;99879.03;5095325;28;8856;-63
2022/08/27 07:33:55;;;;;;;;;4.80;4.00;;;;;19.01;70.10;99882.41;5075255;28;8836;-62
2022/08/27 07:36:23;;;;;;;;;4.00;4.00;;;;;19.04;69.97;99892.00;5076280;28;8955;-61
2022/08/27 07:38:52;;;;;;;;;7.40;5.20;;;;;19.08;69.73;99886.06;5074873;28;8843;-63
2022/08/27 07:41:28;;;;;;;;;6.60;5.60;;;;;19.16;69.51;99891.44;5075546;28;8843;-61
2022/08/27 07:46:40;;;;;;;;;5.20;5.20;;;;;19.29;69.19;99894.44;5079173;28;8850;-62
2022/08/27 07:49:14;;;;;;;;;5.60;3.80;;;;;19.35;69.28;99895.56;5095062;28;8853;-63
2022/08/27 07:51:41;;;;;;;;;7.60;6.20;;;;;19.41;69.26;99889.44;5094541;28;8837;-68
2022/08/27 07:54:09;;;;;;;;;5.20;5.20;;;;;19.51;68.87;99892.75;5094786;28;8841;-62
2022/08/27 07:56:37;;;;;;;;;6.00;5.00;;;;;19.55;69.09;99892.19;5094194;28;8826;-62
2022/08/27 07:59:04;;;;;;;;;4.80;4.20;;;;;19.62;69.08;99887.75;5093214;28;8971;-61
2022/08/27 08:01:32;;;;;;;;;4.80;4.60;;;;;19.70;68.66;99895.81;5093740;28;8890;-61
2022/08/27 08:04:00;;;;;;;;;4.40;2.60;;;;;19.75;68.63;99897.97;5092604;28;8842;-61
2022/08/27 08:06:28;;;;;;;;;4.00;4.00;;;;;19.80;68.43;99899.09;5092655;28;8829;-61
2022/08/27 08:08:56;;;;;;;;;4.40;4.20;;;;;19.84;68.55;99896.88;5093593;28;8854;-60
2022/08/27 08:11:24;;;;;;;;;4.80;4.80;;;;;19.88;68.14;99899.00;5094176;28;8980;-61
2022/08/27 08:13:51;;;;;;;;;5.00;5.00;;;;;19.93;68.64;99898.47;5094108;28;8842;-61
2022/08/27 08:16:19;;;;;;;;;3.80;2.40;;;;;19.98;68.38;99893.38;5094146;28;8834;-62
2022/08/27 08:18:47;;;;;;;;;4.20;4.20;;;;;20.05;68.07;99900.59;5094455;28;8908;-65
2022/08/27 08:21:15;;;;;;;;;5.20;4.40;;;;;20.14;68.08;99904.91;5093859;28;8830;-61
2022/08/27 08:23:42;;;;;;;;;3.60;3.60;;;;;20.22;67.58;99910.25;5094191;28;9565;-62
2022/08/27 08:26:11;;;;;;;;;7.20;6.60;;;;;20.30;67.96;99904.75;5094469;28;8976;-61
2022/08/27 08:28:38;;;;;;;;;5.40;5.00;;;;;20.33;67.68;99908.94;5094126;28;8972;-62
2022/08/27 08:31:06;;;;;;;;;4.00;4.00;;;;;20.32;67.84;99918.91;5095663;28;8878;-61
2022/08/27 08:33:34;;;;;;;;;5.00;5.00;;;;;20.27;68.00;99913.25;5095375;28;8850;-61
2022/08/27 08:36:02;;;;;;;;;2.00;2.00;;;;;20.22;68.12;99904.84;5094602;28;8846;-61
2022/08/27 08:38:30;;;;;;;;;4.00;4.00;;;;;20.22;68.17;99915.66;5094755;28;8948;-61
2022/08/27 08:40:57;;;;;;;;;4.00;4.00;;;;;20.21;68.14;99908.56;5094673;28;9881;-61
2022/08/27 08:43:25;;;;;;;;;2.80;2.00;;;;;20.21;67.95;99916.69;5095548;28;8830;-62
2022/08/27 08:45:53;;;;;;;;;4.60;4.00;;;;;20.24;68.06;99915.47;5095240;28;8826;-62
2022/08/27 08:48:21;;;;;;;;;4.60;3.20;;;;;20.23;67.79;99920.03;5094527;28;8848;-61
2022/08/27 08:50:49;;;;;;;;;5.00;4.00;;;;;20.22;68.27;99912.94;5095526;28;8957;-61
2022/08/27 08:53:18;;;;;;;;;4.00;4.00;;;;;20.17;68.39;99926.16;5094968;28;8927;-61
2022/08/27 08:55:46;;;;;;;;;3.60;3.40;;;;;20.14;68.62;99923.00;5095591;28;8854;-61
2022/08/27 08:58:14;;;;;;;;;4.00;2.40;;;;;20.14;68.28;99923.84;5094250;28;8823;-61
2022/08/27 09:00:42;;;;;;;;;1.00;1.00;;;;;20.14;68.60;99925.69;5094796;28;8838;-61
2022/08/27 09:03:10;;;;;;;;;2.00;2.00;;;;;20.14;68.23;99926.53;5095148;28;8869;-61
2022/08/27 09:05:37;;;;;;;;;5.00;4.60;;;;;20.11;68.49;99924.19;5095085;28;8892;-62
2022/08/27 09:08:05;;;;;;;;;4.00;4.00;;;;;20.05;68.94;99919.53;5094876;28;8985;-62
2022/08/27 09:10:53;;;;;;;;;2.40;2.40;;;;;20.00;68.82;99930.00;5097766;28;8912;-63
2022/08/27 09:13:20;;;;;;;;;1.60;1.60;;;;;19.94;68.92;99925.34;5098827;28;8981;-62
2022/08/27 09:15:48;;;;;;;;;4.00;2.80;;;;;19.91;68.65;99925.72;5099182;28;8841;-62
2022/08/27 09:18:17;;;;;;;;;2.00;2.00;;;;;19.91;69.19;99920.31;5098831;28;8850;-61
2022/08/27 09:20:46;;;;;;;;;3.20;3.20;;;;;19.90;69.33;99923.19;5098148;28;8842;-61
2022/08/27 09:23:14;;;;;;;;;1.80;1.20;;;;;19.86;68.82;99922.69;5097806;28;8825;-61
2022/08/27 09:25:43;;;;;;;;;4.00;3.60;;;;;19.86;69.14;99917.28;5097549;28;8915;-62
2022/08/27 09:29:14;;;;;;;;;3.60;3.60;;;;;19.88;68.74;99922.53;5095808;28;8822;-61
2022/08/27 09:30:59;;;;;;;;;4.20;4.00;;;;;19.91;69.15;99928.41;5096552;28;8846;-63
2022/08/27 09:33:27;;;;;;;;;5.00;5.00;;;;;19.93;68.57;99939.88;5096559;28;8897;-63
2022/08/27 09:36:11;;;;;;;;;5.00;5.00;;;;;19.93;68.56;99929.06;5097669;28;8923;-61
2022/08/27 09:38:38;;;;;;;;;4.00;4.00;;;;;19.94;68.53;99936.16;5097415;28;8873;-61
2022/08/27 09:41:07;;;;;;;;;4.00;4.00;;;;;19.95;68.66;99927.00;5097489;28;8818;-62
2022/08/27 09:43:35;;;;;;;;;5.00;4.40;;;;;19.96;68.73;99928.69;5098349;28;8985;-62
2022/08/27 09:46:03;;;;;;;;;2.80;2.00;;;;;19.99;68.68;99931.03;5098550;28;8833;-62
2022/08/27 09:48:31;;;;;;;;;2.00;2.00;;;;;19.98;68.42;99932.06;5096860;28;8818;-62
2022/08/27 09:50:59;;;;;;;;;2.40;2.00;;;;;19.99;68.60;99927.47;5098213;28;8980;-61
2022/08/27 09:53:27;;;;;;;;;1.20;1.20;;;;;20.01;68.37;99930.88;5098385;28;8986;-60
2022/08/27 09:55:54;;;;;;;;;4.00;3.20;;;;;20.06;68.41;99931.19;5097232;28;8850;-61
2022/08/27 09:58:22;;;;;;;;;3.20;2.00;;;;;20.12;68.15;99928.59;5098498;28;9471;-61
2022/08/27 10:00:50;;;;;;;;;4.00;3.60;;;;;20.17;68.06;99933.47;5097437;28;8830;-61
2022/08/27 10:03:18;;;;;;;;;2.00;2.00;;;;;20.20;67.85;99923.13;5097692;28;8950;-62
2022/08/27 10:05:50;;;;;;;;;3.20;3.20;;;;;20.26;67.93;99924.25;5096829;28;8826;-61
2022/08/27 10:08:18;;;;;;;;;3.80;3.60;;;;;20.32;67.67;99923.50;5096810;28;9591;-61
2022/08/27 10:10:47;;;;;;;;;4.00;4.00;;;;;20.37;67.89;99919.22;5097049;28;8907;-62
2022/08/27 10:13:15;;;;;;;;;0.60;0.20;;;;;20.46;67.61;99926.22;5097598;28;8976;-62
2022/08/27 10:15:42;;;;;;;;;2.00;2.00;;;;;20.56;66.84;99931.38;5096302;28;8842;-61
2022/08/27 10:18:16;;;;;;;;;2.00;1.20;;;;;20.65;66.82;99920.28;5095571;28;8911;-62
2022/08/27 10:20:44;;;;;;;;;2.00;1.80;;;;;20.77;66.66;99932.28;5095432;28;8830;-62
2022/08/27 10:23:12;;;;;;;;;2.00;2.00;;;;;20.87;66.63;99935.63;5095920;28;8856;-62
2022/08/27 10:25:40;;;;;;;;;1.00;1.00;;;;;20.94;66.17;99933.81;5095967;28;8818;-62
2022/08/27 10:28:07;;;;;;;;;3.20;2.40;;;;;20.97;65.69;99944.28;5096140;28;8844;-61
2022/08/27 10:30:36;;;;;;;;;1.80;1.80;;;;;20.99;66.06;99934.94;5096013;28;8859;-62
2022/08/27 10:33:04;;;;;;;;;1.80;1.80;;;;;21.01;65.86;99937.44;5097110;28;8878;-63
2022/08/27 10:35:32;;;;;;;;;1.60;1.60;;;;;20.96;66.63;99938.00;5096603;28;8850;-62
2022/08/27 10:38:00;;;;;;;;;2.00;2.00;;;;;20.97;66.37;99939.69;5096325;28;8941;-62
2022/08/27 10:40:28;;;;;;;;;4.00;2.00;;;;;20.96;66.68;99942.59;5096872;28;9611;-62
2022/08/27 10:42:56;;;;;;;;;2.00;2.00;;;;;20.93;66.67;99946.53;5096004;28;8850;-62
2022/08/27 10:45:24;;;;;;;;;5.00;4.00;;;;;20.89;66.93;99941.66;5096820;28;8856;-62
2022/08/27 10:47:58;;;;;;;;;1.80;1.00;;;;;20.87;66.75;99948.28;5096289;28;8956;-62
2022/08/27 10:50:28;;;;;;;;;1.40;1.00;;;;;20.84;66.96;99944.06;5097038;28;8841;-61
2022/08/27 10:52:55;;;;;;;;;2.00;2.00;;;;;20.84;66.85;99942.19;5097629;28;8838;-62
2022/08/27 10:55:25;;;;;;;;;2.00;2.00;;;;;20.86;66.72;99947.41;5096300;28;8842;-62
2022/08/27 10:57:53;;;;;;;;;2.00;2.00;;;;;20.88;66.11;99948.94;5096829;28;8826;-62
2022/08/27 11:00:27;;;;;;;;;2.00;2.00;;;;;20.90;66.29;99946.88;5097097;28;8960;-62
2022/08/27 11:02:55;;;;;;;;;3.60;2.00;;;;;20.89;66.29;99944.38;5096329;28;9055;-62
2022/08/27 11:05:22;;;;;;;;;2.00;2.00;;;;;20.88;66.61;99947.25;5096073;28;8833;-62
2022/08/27 11:07:51;;;;;;;;;4.00;2.00;;;;;20.91;66.18;99942.31;5096273;28;8996;-63
2022/08/27 11:10:19;;;;;;;;;2.00;2.00;;;;;20.94;66.17;99936.50;5096301;28;8826;-64
2022/08/27 11:12:47;;;;;;;;;1.20;1.20;;;;;20.98;66.09;99940.53;5096867;28;8838;-63
2022/08/27 11:15:15;;;;;;;;;2.00;2.00;;;;;21.00;65.78;99941.19;5095855;28;8956;-62
2022/08/27 11:17:43;;;;;;;;;2.00;2.00;;;;;21.00;65.96;99942.03;5095082;28;8978;-61
2022/08/27 11:20:10;;;;;;;;;2.00;2.00;;;;;21.01;65.76;99945.56;5094938;28;8853;-62
2022/08/27 11:22:38;;;;;;;;;2.00;2.00;;;;;21.04;66.02;99937.91;5095380;28;8872;-61
2022/08/27 11:25:06;;;;;;;;;1.40;1.40;;;;;21.09;65.62;99937.34;5095302;28;8826;-62
2022/08/27 11:27:34;;;;;;;;;2.00;2.00;;;;;21.12;65.66;99931.56;5094959;28;8853;-61
2022/08/27 11:30:02;;;;;;;;;1.40;1.40;;;;;21.17;65.55;99934.50;5095690;28;8842;-62
2022/08/27 11:32:30;;;;;;;;;3.60;3.60;;;;;21.26;65.42;99927.97;5096013;28;8878;-62
2022/08/27 11:34:58;;;;;;;;;4.00;4.00;;;;;21.40;65.31;99929.81;5095740;28;8849;-64
2022/08/27 11:37:26;;;;;;;;;1.40;1.40;;;;;21.56;64.99;99924.16;5095631;28;8885;-64
2022/08/27 11:39:54;;;;;;;;;3.60;3.60;;;;;21.72;64.41;99932.06;5096385;28;8898;-62
2022/08/27 11:42:21;;;;;;;;;2.80;2.80;;;;;21.87;63.59;99919.28;5095921;28;8818;-63
2022/08/27 11:44:49;;;;;;;;;1.00;1.00;;;;;22.03;63.77;99922.56;5096444;28;8836;-63
2022/08/27 11:47:17;;;;;;;;;2.80;2.00;;;;;22.19;63.28;99921.44;5096699;28;8830;-64
2022/08/27 11:49:45;;;;;;;;;2.00;2.00;;;;;22.36;63.10;99918.25;5095468;28;8976;-62
2022/08/27 11:52:13;;;;;;;;;3.40;2.00;;;;;22.60;62.50;99917.81;5094959;28;8838;-62
2022/08/27 11:54:43;;;;;;;;;4.00;4.00;;;;;22.77;62.16;99912.91;5095373;28;8830;-61